Time;durP1;ratioP1;P1;durP2;ratioP2;P2;SDS_P1;SDS_P2;PMS_P1;PMS_P2;Temp;Humidity;BMP_temperature;BMP_pressure;BME280_temperature;BME280_humidity;BME280_pressure;Samples;Min_cycle;Max_cycle;Signal;HPM_P1;HPM_P2
2023/04/26 00:04:11;;;;;;;3.88;1.58;;;;;;;;;;10408305;28;20044;-85
2023/04/26 00:09:17;;;;;;;4.93;2.00;;;;;;;;;;10414216;28;20524;-84
2023/04/26 00:14:21;;;;;;;2.33;1.48;;;;;;;;;;10420070;28;20037;-85
2023/04/26 00:19:25;;;;;;;2.92;1.83;;;;;;;;;;10438062;28;20135;-86
2023/04/26 00:24:30;;;;;;;3.42;1.98;;;;;;;;;;10412684;28;20051;-85
2023/04/26 00:29:34;;;;;;;4.00;1.60;;;;;;;;;;10415989;28;20116;-88
2023/04/26 00:34:38;;;;;;;2.20;1.58;;;;;;;;;;10405285;28;20052;-87
2023/04/26 00:39:43;;;;;;;3.38;1.58;;;;;;;;;;10406406;28;20069;-85
2023/04/26 00:44:48;;;;;;;3.83;1.90;;;;;;;;;;10420253;28;20119;-87
2023/04/26 00:49:52;;;;;;;2.40;1.90;;;;;;;;;;10420709;28;20040;-85
2023/04/26 00:54:58;;;;;;;1.90;1.70;;;;;;;;;;10426970;28;20069;-84
2023/04/26 01:00:02;;;;;;;3.35;1.52;;;;;;;;;;10405659;28;20038;-87
2023/04/26 01:05:08;;;;;;;1.70;1.45;;;;;;;;;;10427895;28;20041;-86
2023/04/26 01:10:13;;;;;;;4.43;1.20;;;;;;;;;;10418826;28;20037;-86
2023/04/26 01:15:17;;;;;;;1.42;1.33;;;;;;;;;;10414612;28;20041;-84
2023/04/26 01:20:20;;;;;;;1.77;1.30;;;;;;;;;;10400973;28;20053;-89
2023/04/26 01:25:25;;;;;;;2.60;1.38;;;;;;;;;;10421778;28;20056;-84
2023/04/26 01:30:29;;;;;;;1.97;1.40;;;;;;;;;;10405436;28;20033;-88
2023/04/26 01:35:33;;;;;;;2.08;1.40;;;;;;;;;;10412533;28;20041;-84
2023/04/26 01:40:39;;;;;;;2.35;1.23;;;;;;;;;;10414042;28;20045;-85
2023/04/26 01:51:12;;;;;;;2.60;1.50;;;;;;;;;;10429215;28;20041;-83
2023/04/26 01:56:18;;;;;;;3.20;1.33;;;;;;;;;;10446017;28;20048;-83
2023/04/26 02:01:23;;;;;;;2.65;1.60;;;;;;;;;;10428874;28;20037;-83
2023/04/26 02:06:26;;;;;;;1.95;1.40;;;;;;;;;;10428064;28;20427;-84
2023/04/26 02:11:31;;;;;;;3.15;1.27;;;;;;;;;;10422605;28;20139;-83
2023/04/26 02:16:39;;;;;;;1.90;1.35;;;;;;;;;;10435491;28;20060;-83
2023/04/26 02:21:55;;;;;;;2.30;1.60;;;;;;;;;;10425089;28;20065;-83
2023/04/26 02:27:03;;;;;;;2.25;1.50;;;;;;;;;;10421532;28;20045;-83
2023/04/26 02:32:11;;;;;;;2.42;1.33;;;;;;;;;;10419469;28;20033;-84
2023/04/26 02:37:17;;;;;;;2.20;1.52;;;;;;;;;;10425325;28;20086;-84
2023/04/26 02:42:29;;;;;;;2.35;1.27;;;;;;;;;;10423523;28;20037;-83
2023/04/26 02:47:35;;;;;;;2.50;1.63;;;;;;;;;;10426188;28;20071;-83
2023/04/26 02:52:39;;;;;;;3.75;1.80;;;;;;;;;;10422627;28;20037;-84
2023/04/26 02:57:45;;;;;;;2.83;1.60;;;;;;;;;;10423564;28;20453;-84
2023/04/26 03:02:49;;;;;;;2.30;1.33;;;;;;;;;;10422193;28;20099;-84
2023/04/26 03:07:53;;;;;;;2.03;1.55;;;;;;;;;;10435083;28;20045;-84
2023/04/26 03:12:59;;;;;;;2.28;1.42;;;;;;;;;;10408006;28;20386;-84
2023/04/26 03:18:02;;;;;;;2.08;1.80;;;;;;;;;;10420100;28;20041;-84
2023/04/26 03:23:06;;;;;;;1.80;1.33;;;;;;;;;;10443671;28;20037;-84
2023/04/26 03:28:17;;;;;;;3.75;2.00;;;;;;;;;;10421467;28;20056;-84
2023/04/26 03:33:26;;;;;;;2.40;1.38;;;;;;;;;;10422621;28;20049;-83
2023/04/26 03:38:33;;;;;;;2.05;1.60;;;;;;;;;;10412461;28;20041;-84
2023/04/26 03:43:38;;;;;;;3.17;1.50;;;;;;;;;;10426057;28;20578;-84
2023/04/26 03:48:44;;;;;;;3.80;1.60;;;;;;;;;;10410740;28;20056;-84
2023/04/26 03:53:48;;;;;;;4.03;1.77;;;;;;;;;;10419827;28;20040;-84
2023/04/26 03:58:53;;;;;;;4.60;2.13;;;;;;;;;;10422799;28;20090;-84
2023/04/26 04:03:56;;;;;;;4.90;2.45;;;;;;;;;;10425791;28;20577;-84
2023/04/26 04:09:00;;;;;;;3.95;2.75;;;;;;;;;;10424569;28;20164;-84
2023/04/26 04:14:09;;;;;;;4.25;2.80;;;;;;;;;;10431174;28;20128;-84
2023/04/26 04:19:18;;;;;;;4.40;3.13;;;;;;;;;;10440673;28;20033;-84
2023/04/26 04:24:25;;;;;;;3.13;2.60;;;;;;;;;;10424669;28;20065;-83
2023/04/26 04:29:31;;;;;;;4.43;2.33;;;;;;;;;;10433264;28;20124;-83
2023/04/26 04:34:36;;;;;;;2.47;1.77;;;;;;;;;;10430952;28;20511;-84
2023/04/26 04:39:40;;;;;;;2.00;1.60;;;;;;;;;;10422453;28;20040;-84
2023/04/26 04:44:45;;;;;;;1.80;1.48;;;;;;;;;;10420048;28;20921;-85
2023/04/26 04:49:49;;;;;;;3.70;1.97;;;;;;;;;;10417187;28;20497;-84
2023/04/26 04:54:53;;;;;;;3.28;2.10;;;;;;;;;;10424405;28;20511;-84
2023/04/26 05:00:02;;;;;;;2.10;1.83;;;;;;;;;;10452037;28;20663;-84
2023/04/26 05:05:08;;;;;;;4.57;2.00;;;;;;;;;;10431654;28;20043;-84
2023/04/26 05:10:19;;;;;;;4.30;2.17;;;;;;;;;;10440093;28;20479;-84
2023/04/26 05:15:27;;;;;;;5.78;2.10;;;;;;;;;;10433987;28;20051;-87
2023/04/26 05:20:31;;;;;;;2.72;1.90;;;;;;;;;;10449690;28;20044;-87
2023/04/26 05:25:37;;;;;;;3.78;2.00;;;;;;;;;;10440614;28;20569;-87
2023/04/26 05:31:03;;;;;;;2.83;2.10;;;;;;;;;;10431317;28;20076;-87
2023/04/26 05:36:27;;;;;;;3.58;2.03;;;;;;;;;;10440855;28;20041;-87
2023/04/26 05:41:32;;;;;;;2.58;1.92;;;;;;;;;;10440509;28;20113;-87
2023/04/26 05:46:38;;;;;;;2.70;1.70;;;;;;;;;;10433549;28;20115;-87
2023/04/26 05:51:43;;;;;;;2.05;1.80;;;;;;;;;;10425217;28;20435;-87
2023/04/26 05:56:49;;;;;;;2.58;1.92;;;;;;;;;;10441775;28;20124;-86
2023/04/26 06:02:00;;;;;;;4.50;2.45;;;;;;;;;;10427994;28;20446;-84
2023/04/26 06:07:04;;;;;;;5.30;2.60;;;;;;;;;;10429352;28;20045;-84
2023/04/26 06:12:07;;;;;;;4.30;2.20;;;;;;;;;;10441758;28;20163;-84
2023/04/26 06:17:16;;;;;;;3.45;2.45;;;;;;;;;;10424300;28;20037;-83
2023/04/26 06:22:27;;;;;;;3.25;2.00;;;;;;;;;;10434356;28;20527;-84
2023/04/26 06:27:37;;;;;;;2.33;1.60;;;;;;;;;;10437000;28;20397;-87
2023/04/26 06:32:44;;;;;;;3.45;2.05;;;;;;;;;;10439963;28;20033;-86
2023/04/26 06:37:53;;;;;;;2.95;1.77;;;;;;;;;;10446486;28;20864;-86
2023/04/26 06:43:03;;;;;;;3.30;2.05;;;;;;;;;;10423978;28;20067;-86
2023/04/26 06:48:08;;;;;;;3.45;2.25;;;;;;;;;;10442044;28;20051;-87
2023/04/26 06:53:12;;;;;;;4.80;2.10;;;;;;;;;;10424468;28;20041;-86
2023/04/26 06:58:16;;;;;;;3.65;1.85;;;;;;;;;;10431138;28;20045;-87
2023/04/26 07:03:24;;;;;;;9.27;2.10;;;;;;;;;;10406833;28;20057;-86
2023/04/26 07:08:27;;;;;;;2.22;1.50;;;;;;;;;;10426454;28;20053;-86
2023/04/26 07:13:39;;;;;;;4.22;2.33;;;;;;;;;;10430601;28;20042;-86
2023/04/26 07:18:48;;;;;;;8.13;3.67;;;;;;;;;;10407633;28;20056;-86
2023/04/26 07:23:55;;;;;;;7.40;3.55;;;;;;;;;;10439563;28;20099;-86
2023/04/26 07:28:59;;;;;;;5.32;2.10;;;;;;;;;;10427983;28;20053;-87
2023/04/26 07:34:06;;;;;;;2.58;1.63;;;;;;;;;;10422527;28;20041;-85
2023/04/26 07:39:10;;;;;;;3.63;1.50;;;;;;;;;;10433053;28;20037;-85
2023/04/26 07:44:15;;;;;;;5.43;2.63;;;;;;;;;;10456979;22;20068;-84
2023/04/26 07:49:20;;;;;;;4.28;2.20;;;;;;;;;;10398336;28;20046;-85
2023/04/26 07:54:23;;;;;;;2.97;1.73;;;;;;;;;;10386319;28;20060;-86
2023/04/26 07:59:26;;;;;;;3.92;2.20;;;;;;;;;;10384189;28;20046;-85
2023/04/26 08:04:35;;;;;;;2.72;1.77;;;;;;;;;;10379542;28;20061;-85
2023/04/26 08:09:38;;;;;;;3.58;1.80;;;;;;;;;;10376139;28;20655;-85
2023/04/26 08:14:42;;;;;;;4.35;1.38;;;;;;;;;;10382053;28;20054;-85
2023/04/26 08:19:47;;;;;;;2.22;1.30;;;;;;;;;;10389458;28;20077;-85
2023/04/26 08:24:50;;;;;;;3.40;1.55;;;;;;;;;;10365337;28;20510;-84
2023/04/26 08:29:54;;;;;;;4.60;1.77;;;;;;;;;;10386056;28;20057;-85
2023/04/26 08:34:59;;;;;;;5.15;2.22;;;;;;;;;;10404118;28;20053;-85
2023/04/26 08:40:03;;;;;;;2.53;1.67;;;;;;;;;;10368243;28;20045;-84
2023/04/26 08:45:10;;;;;;;6.00;1.52;;;;;;;;;;10378545;28;20073;-83
2023/04/26 08:50:18;;;;;;;2.05;1.20;;;;;;;;;;10381647;28;20049;-85
2023/04/26 08:55:23;;;;;;;2.53;1.10;;;;;;;;;;10399809;28;20044;-84
2023/04/26 09:00:26;;;;;;;4.40;1.30;;;;;;;;;;10399899;28;20053;-85
2023/04/26 09:05:33;;;;;;;2.20;1.08;;;;;;;;;;10389616;28;20080;-86
2023/04/26 09:10:36;;;;;;;3.50;0.80;;;;;;;;;;10396707;28;20529;-85
2023/04/26 09:15:40;;;;;;;2.63;1.38;;;;;;;;;;10410557;28;20056;-85
2023/04/26 09:20:46;;;;;;;5.07;1.50;;;;;;;;;;10407011;28;20129;-84
2023/04/26 09:25:49;;;;;;;1.95;1.35;;;;;;;;;;10383448;28;20064;-85
2023/04/26 09:30:52;;;;;;;3.85;1.30;;;;;;;;;;10392971;28;20050;-85
2023/04/26 09:36:12;;;;;;;2.92;1.13;;;;;;;;;;10393708;28;20056;-85
2023/04/26 09:41:15;;;;;;;2.78;1.17;;;;;;;;;;10383934;28;20050;-85
2023/04/26 09:46:23;;;;;;;2.50;1.33;;;;;;;;;;10368613;28;20473;-86
2023/04/26 09:51:28;;;;;;;1.90;0.85;;;;;;;;;;10375584;28;20049;-86
2023/04/26 09:56:31;;;;;;;5.55;2.05;;;;;;;;;;10366834;28;20049;-84
2023/04/26 10:01:35;;;;;;;3.58;1.02;;;;;;;;;;10369796;28;20291;-85
2023/04/26 10:06:40;;;;;;;2.20;1.15;;;;;;;;;;10394649;28;20045;-85
2023/04/26 10:11:43;;;;;;;3.90;1.38;;;;;;;;;;10371960;28;20061;-85
2023/04/26 10:16:48;;;;;;;1.90;0.95;;;;;;;;;;10397796;28;20049;-84
2023/04/26 10:21:54;;;;;;;6.95;2.00;;;;;;;;;;10384876;28;20246;-85
2023/04/26 10:26:58;;;;;;;1.30;0.95;;;;;;;;;;10382700;28;20566;-83
2023/04/26 10:32:10;;;;;;;4.00;1.15;;;;;;;;;;10355233;28;20108;-84
2023/04/26 10:37:17;;;;;;;1.90;0.93;;;;;;;;;;10369169;28;20546;-84
2023/04/26 10:42:24;;;;;;;2.58;0.90;;;;;;;;;;10366834;28;20052;-85
2023/04/26 10:47:31;;;;;;;3.20;1.20;;;;;;;;;;10383237;28;20049;-86
2023/04/26 10:52:36;;;;;;;3.72;1.35;;;;;;;;;;10393984;28;20046;-85
2023/04/26 10:57:51;;;;;;;3.72;1.25;;;;;;;;;;10382606;28;20037;-84
2023/04/26 11:02:58;;;;;;;1.70;1.13;;;;;;;;;;10389252;28;20050;-85
2023/04/26 11:08:08;;;;;;;1.40;0.80;;;;;;;;;;10393475;28;20096;-86
2023/04/26 11:13:12;;;;;;;2.45;1.15;;;;;;;;;;10377112;28;20426;-85
2023/04/26 11:18:19;;;;;;;2.08;1.08;;;;;;;;;;10387979;28;20041;-85
2023/04/26 11:23:25;;;;;;;3.80;1.15;;;;;;;;;;10405726;28;20051;-86
2023/04/26 11:28:30;;;;;;;3.40;1.10;;;;;;;;;;10365016;28;20129;-86
2023/04/26 11:33:34;;;;;;;3.05;1.10;;;;;;;;;;10386933;28;20057;-85
2023/04/26 11:38:39;;;;;;;3.58;1.25;;;;;;;;;;10379409;28;20053;-84
2023/04/26 11:43:43;;;;;;;2.50;1.20;;;;;;;;;;10378117;28;20052;-85
2023/04/26 11:48:46;;;;;;;4.22;1.70;;;;;;;;;;10379083;28;20046;-85
2023/04/26 11:53:51;;;;;;;2.40;1.13;;;;;;;;;;10396409;28;20518;-86
2023/04/26 11:58:57;;;;;;;1.60;1.00;;;;;;;;;;10370586;28;20421;-86
2023/04/26 12:04:00;;;;;;;1.50;1.00;;;;;;;;;;10374733;28;20108;-86
2023/04/26 12:09:05;;;;;;;3.15;1.67;;;;;;;;;;10390121;28;20288;-85
2023/04/26 12:14:10;;;;;;;1.80;1.17;;;;;;;;;;10399126;28;20049;-86
2023/04/26 12:19:15;;;;;;;2.13;0.90;;;;;;;;;;10361058;28;20143;-86
2023/04/26 12:24:24;;;;;;;5.18;1.60;;;;;;;;;;10399686;28;20041;-85
2023/04/26 12:29:29;;;;;;;1.95;1.10;;;;;;;;;;10386630;28;20484;-85
2023/04/26 12:34:33;;;;;;;3.63;0.90;;;;;;;;;;10386869;28;20148;-86
2023/04/26 12:39:37;;;;;;;2.03;0.75;;;;;;;;;;10380674;28;20502;-85
2023/04/26 12:44:41;;;;;;;4.60;1.42;;;;;;;;;;10389521;28;20041;-85
2023/04/26 12:49:44;;;;;;;2.33;1.10;;;;;;;;;;10392607;28;20045;-86
2023/04/26 12:54:49;;;;;;;2.70;1.27;;;;;;;;;;10394730;28;20041;-85
2023/04/26 12:59:52;;;;;;;1.13;0.80;;;;;;;;;;10391254;28;20052;-85
2023/04/26 13:04:55;;;;;;;2.58;0.95;;;;;;;;;;10389506;28;20140;-85
2023/04/26 13:10:01;;;;;;;1.92;0.95;;;;;;;;;;10376116;28;20438;-86
2023/04/26 13:15:05;;;;;;;2.47;1.53;;;;;;;;;;10396846;28;20072;-85
2023/04/26 13:20:09;;;;;;;2.67;1.17;;;;;;;;;;10376235;28;20046;-86
2023/04/26 13:25:14;;;;;;;2.72;1.30;;;;;;;;;;10397629;28;20350;-86
2023/04/26 13:30:18;;;;;;;5.03;1.75;;;;;;;;;;10394188;28;20046;-85
2023/04/26 13:35:21;;;;;;;1.88;0.88;;;;;;;;;;10375457;28;20136;-85
2023/04/26 13:40:26;;;;;;;4.13;1.17;;;;;;;;;;10378266;28;20051;-85
2023/04/26 14:08:46;;;;;;;3.13;1.00;;;;;;;;;;10442841;28;20037;-88
2023/04/26 14:13:54;;;;;;;1.52;0.93;;;;;;;;;;10436890;28;20063;-88
2023/04/26 14:18:58;;;;;;;1.90;0.80;;;;;;;;;;10435837;28;20045;-88
2023/04/26 14:24:03;;;;;;;3.00;1.20;;;;;;;;;;10417146;28;20069;-88
2023/04/26 14:29:07;;;;;;;2.90;0.98;;;;;;;;;;10411340;28;20052;-88
2023/04/26 14:34:12;;;;;;;2.10;1.00;;;;;;;;;;10435765;28;20125;-88
2023/04/26 14:39:16;;;;;;;4.95;1.30;;;;;;;;;;10411992;28;20136;-88
2023/04/26 14:44:22;;;;;;;3.90;1.45;;;;;;;;;;10417493;28;20528;-88
2023/04/26 14:49:26;;;;;;;3.80;1.10;;;;;;;;;;10437041;28;20041;-88
2023/04/26 14:54:31;;;;;;;2.10;1.17;;;;;;;;;;10436131;28;20119;-87
2023/04/26 14:59:34;;;;;;;2.80;0.68;;;;;;;;;;10436939;28;20067;-88
2023/04/26 15:04:38;;;;;;;3.42;0.95;;;;;;;;;;10422685;28;20049;-88
2023/04/26 15:09:43;;;;;;;2.33;0.98;;;;;;;;;;10423529;28;20083;-88
2023/04/26 15:14:48;;;;;;;4.45;1.60;;;;;;;;;;10416057;28;20053;-88
2023/04/26 15:19:52;;;;;;;3.20;1.08;;;;;;;;;;10434125;28;20044;-88
2023/04/26 15:24:57;;;;;;;2.67;0.98;;;;;;;;;;10419148;28;20079;-88
2023/04/26 15:30:00;;;;;;;1.50;1.02;;;;;;;;;;10415364;28;20065;-88
2023/04/26 15:35:06;;;;;;;2.47;1.15;;;;;;;;;;10429923;28;20069;-88
2023/04/26 15:40:11;;;;;;;2.03;0.93;;;;;;;;;;10414093;28;20108;-88
2023/04/26 15:45:15;;;;;;;1.85;0.93;;;;;;;;;;10436671;28;20041;-87
2023/04/26 15:50:18;;;;;;;2.72;1.08;;;;;;;;;;10417493;28;20577;-88
2023/04/26 15:55:23;;;;;;;2.75;1.10;;;;;;;;;;10430000;28;20037;-87
2023/04/26 16:00:27;;;;;;;2.13;0.90;;;;;;;;;;10437588;28;20521;-88
2023/04/26 16:05:32;;;;;;;2.28;0.80;;;;;;;;;;10440778;28;20037;-88
2023/04/26 16:10:37;;;;;;;2.97;0.88;;;;;;;;;;10410145;28;20098;-87
2023/04/26 16:15:41;;;;;;;3.38;0.98;;;;;;;;;;10418225;28;20132;-87
2023/04/26 16:20:44;;;;;;;2.33;0.80;;;;;;;;;;10423366;28;20266;-87
2023/04/26 16:25:49;;;;;;;5.57;1.17;;;;;;;;;;10405567;28;20045;-87
2023/04/26 16:30:52;;;;;;;2.05;1.20;;;;;;;;;;10433821;28;20056;-88
2023/04/26 16:35:58;;;;;;;2.08;0.93;;;;;;;;;;10420761;28;20602;-88
2023/04/26 16:41:03;;;;;;;3.45;1.10;;;;;;;;;;10413369;28;20072;-89
2023/04/26 16:46:07;;;;;;;1.60;0.77;;;;;;;;;;10428004;28;20042;-88
2023/04/26 16:51:11;;;;;;;3.42;0.88;;;;;;;;;;10418156;28;20103;-88
2023/04/26 16:56:16;;;;;;;2.25;1.15;;;;;;;;;;10419297;28;20306;-88
2023/04/26 17:01:19;;;;;;;3.60;1.10;;;;;;;;;;10435064;28;20076;-88
2023/04/26 17:06:23;;;;;;;1.35;0.75;;;;;;;;;;10431680;28;20042;-88
2023/04/26 17:11:28;;;;;;;3.90;1.10;;;;;;;;;;10415288;28;20140;-88
2023/04/26 17:16:32;;;;;;;1.42;0.65;;;;;;;;;;10429711;28;20059;-88
2023/04/26 17:21:35;;;;;;;1.25;0.90;;;;;;;;;;10433609;28;20140;-87
2023/04/26 17:26:40;;;;;;;0.80;0.73;;;;;;;;;;10417224;28;20052;-88
2023/04/26 17:31:44;;;;;;;2.15;1.00;;;;;;;;;;10429847;28;20092;-88
2023/04/26 17:36:47;;;;;;;1.15;0.82;;;;;;;;;;10410092;28;20119;-88
2023/04/26 17:41:52;;;;;;;1.95;0.80;;;;;;;;;;10432384;28;20064;-88
2023/04/26 17:46:56;;;;;;;1.33;0.70;;;;;;;;;;10418536;28;20136;-88
2023/04/26 17:51:59;;;;;;;2.10;0.93;;;;;;;;;;10418647;28;20207;-88
2023/04/26 17:57:06;;;;;;;1.48;0.80;;;;;;;;;;10415243;28;20053;-88
2023/04/26 18:02:09;;;;;;;2.53;0.77;;;;;;;;;;10433301;28;20506;-88
2023/04/26 18:07:13;;;;;;;0.70;0.70;;;;;;;;;;10415216;28;20423;-88
2023/04/26 18:12:18;;;;;;;1.98;0.93;;;;;;;;;;10417966;28;20358;-88
2023/04/26 18:17:21;;;;;;;1.45;1.00;;;;;;;;;;10417141;28;20041;-88
2023/04/26 18:22:25;;;;;;;1.70;0.88;;;;;;;;;;10403582;28;20040;-88
2023/04/26 18:27:30;;;;;;;2.50;0.85;;;;;;;;;;10432492;28;20045;-88
2023/04/26 18:32:33;;;;;;;1.65;0.90;;;;;;;;;;10425912;28;20144;-88
2023/04/26 18:37:38;;;;;;;3.08;1.10;;;;;;;;;;10412496;28;20103;-88
2023/04/26 18:42:43;;;;;;;1.88;1.00;;;;;;;;;;10420014;28;20163;-88
2023/04/26 18:47:47;;;;;;;1.83;1.00;;;;;;;;;;10431064;28;20049;-88
2023/04/26 18:52:50;;;;;;;1.63;1.05;;;;;;;;;;10417829;28;20052;-88
2023/04/26 18:57:55;;;;;;;3.40;1.00;;;;;;;;;;10400283;28;20417;-88
2023/04/26 19:02:59;;;;;;;2.22;1.20;;;;;;;;;;10419569;28;20049;-88
2023/04/26 19:08:02;;;;;;;1.70;1.23;;;;;;;;;;10436492;28;20238;-88
2023/04/26 19:13:07;;;;;;;3.33;1.30;;;;;;;;;;10398086;28;20601;-88
2023/04/26 19:18:11;;;;;;;2.30;1.10;;;;;;;;;;10409602;28;20052;-88
2023/04/26 19:23:14;;;;;;;2.67;1.48;;;;;;;;;;10424838;28;20049;-88
2023/04/26 19:28:19;;;;;;;4.32;1.38;;;;;;;;;;10412864;28;20467;-88
2023/04/26 19:33:23;;;;;;;3.22;1.50;;;;;;;;;;10414074;28;20080;-88
2023/04/26 19:38:26;;;;;;;2.75;1.50;;;;;;;;;;10419586;28;20514;-87
2023/04/26 19:43:31;;;;;;;3.33;1.55;;;;;;;;;;10473796;23;20100;-83
2023/04/26 19:48:36;;;;;;;2.90;1.35;;;;;;;;;;10418466;28;20057;-83
2023/04/26 19:53:39;;;;;;;5.35;1.83;;;;;;;;;;10409679;28;20381;-83
2023/04/26 19:58:46;;;;;;;3.65;2.22;;;;;;;;;;10422643;28;20080;-83
2023/04/26 20:03:50;;;;;;;3.35;1.95;;;;;;;;;;10426814;28;20056;-82
2023/04/26 20:08:53;;;;;;;4.53;2.10;;;;;;;;;;10432042;28;20072;-83
2023/04/26 20:13:58;;;;;;;3.17;2.00;;;;;;;;;;10413696;28;20073;-83
2023/04/26 20:19:03;;;;;;;4.70;1.85;;;;;;;;;;10416686;28;20057;-83
2023/04/26 20:24:10;;;;;;;4.18;2.20;;;;;;;;;;10419727;28;20049;-83
2023/04/26 20:29:14;;;;;;;3.43;2.10;;;;;;;;;;10436762;28;20057;-83
2023/04/26 20:34:18;;;;;;;3.90;2.40;;;;;;;;;;10429028;28;20049;-83
2023/04/26 20:39:21;;;;;;;4.95;2.53;;;;;;;;;;10456624;28;20071;-83
2023/04/26 20:44:26;;;;;;;3.75;2.30;;;;;;;;;;10444636;28;20056;-83
2023/04/26 20:49:30;;;;;;;7.13;3.22;;;;;;;;;;10429384;28;20049;-83
2023/04/26 20:54:33;;;;;;;4.90;2.55;;;;;;;;;;10438621;28;20041;-83
2023/04/26 20:59:40;;;;;;;5.95;3.42;;;;;;;;;;10434895;28;20095;-83
2023/04/26 21:04:44;;;;;;;4.72;2.92;;;;;;;;;;10442281;28;20095;-84
2023/04/26 21:09:48;;;;;;;4.88;3.15;;;;;;;;;;10439958;28;20109;-84
2023/04/26 21:14:52;;;;;;;3.58;2.08;;;;;;;;;;10469333;28;20053;-84
2023/04/26 21:19:55;;;;;;;4.03;2.72;;;;;;;;;;10450755;28;20059;-83
2023/04/26 21:25:01;;;;;;;6.07;2.65;;;;;;;;;;10427299;28;20056;-83
2023/04/26 21:30:08;;;;;;;4.25;2.58;;;;;;;;;;10437670;28;20046;-83
2023/04/26 21:35:11;;;;;;;7.10;2.80;;;;;;;;;;10436952;28;20057;-83
2023/04/26 21:40:17;;;;;;;5.20;2.55;;;;;;;;;;10437542;28;20064;-83
2023/04/26 21:45:22;;;;;;;4.32;2.45;;;;;;;;;;10416220;28;20045;-83
2023/04/26 21:50:25;;;;;;;4.25;2.45;;;;;;;;;;10436951;28;20499;-83
2023/04/26 21:55:29;;;;;;;2.67;1.77;;;;;;;;;;10415690;28;20045;-83
2023/04/26 22:00:33;;;;;;;3.00;1.50;;;;;;;;;;10422733;28;20043;-83
2023/04/26 22:05:37;;;;;;;3.40;1.60;;;;;;;;;;10460816;28;20144;-83
2023/04/26 22:10:40;;;;;;;2.33;1.60;;;;;;;;;;10432912;28;20147;-82
2023/04/26 22:15:45;;;;;;;3.05;1.75;;;;;;;;;;10433129;28;20050;-83
2023/04/26 22:20:48;;;;;;;2.50;1.60;;;;;;;;;;10444516;28;20045;-84
2023/04/26 22:25:52;;;;;;;3.60;1.73;;;;;;;;;;10441173;28;20053;-83
2023/04/26 22:30:56;;;;;;;4.07;1.60;;;;;;;;;;10437292;28;20124;-84
2023/04/26 22:36:00;;;;;;;3.38;1.80;;;;;;;;;;10443221;28;20057;-83
2023/04/26 22:41:05;;;;;;;2.45;1.90;;;;;;;;;;10437241;28;20045;-83
2023/04/26 22:46:10;;;;;;;2.83;2.00;;;;;;;;;;10443337;28;20431;-84
2023/04/26 22:51:14;;;;;;;4.05;1.63;;;;;;;;;;10413591;28;20061;-83
2023/04/26 22:56:17;;;;;;;2.15;1.50;;;;;;;;;;10423803;28;20405;-83
2023/04/26 23:01:28;;;;;;;2.45;1.67;;;;;;;;;;10410256;28;20055;-83
2023/04/26 23:06:32;;;;;;;2.78;1.70;;;;;;;;;;10409268;28;20091;-83
2023/04/26 23:11:35;;;;;;;2.45;1.73;;;;;;;;;;10422758;28;20046;-84
2023/04/26 23:16:41;;;;;;;4.00;1.70;;;;;;;;;;10418886;28;20049;-84
2023/04/26 23:21:44;;;;;;;4.00;1.87;;;;;;;;;;10416542;28;20175;-84
2023/04/26 23:26:47;;;;;;;3.30;2.00;;;;;;;;;;10442150;28;20049;-83
2023/04/26 23:31:52;;;;;;;4.38;2.30;;;;;;;;;;10408509;28;20045;-82
2023/04/26 23:36:55;;;;;;;6.10;2.80;;;;;;;;;;10417215;28;20451;-83
2023/04/26 23:41:58;;;;;;;4.03;2.72;;;;;;;;;;10387381;28;20049;-83
2023/04/26 23:47:03;;;;;;;5.28;2.30;;;;;;;;;;10409128;28;20052;-83
2023/04/26 23:52:06;;;;;;;4.35;2.60;;;;;;;;;;10397506;28;20046;-83
2023/04/26 23:57:09;;;;;;;3.35;2.05;;;;;;;;;;10405540;28;20049;-82
